NAX583 ENAL-ENML
Flight info
| Callsign | NAX583 |
|---|---|
| Flight time | 0h 25m |
| Altitude | 5000 |
| Route | DCT TAT DCT APRIC |
| Aircraft | C208/L-SDFGR/C |
Departure
| Time | 2026-05-04 11:05 |
|---|---|
| Airport | Ålesund Airport (ENAL) |
Arrival
| Time | 2026-05-04 11:31 |
|---|---|
| Airport | Molde Airport, Årø (ENML) |
| Time | Latitude | Longitude | Altitude | Speed | Heading |
|---|---|---|---|---|---|
| 2026-05-04 10:36 | 62.55904 | 6.11475 | 67 ft | 0 kts | 153° |
| 2026-05-04 10:52 | 62.55906 | 6.11472 | 67 ft | 2 kts | 153° |
| 2026-05-04 10:52 | 62.55916 | 6.11462 | 65 ft | 2 kts | 157° |
| 2026-05-04 10:54 | 62.55976 | 6.11481 | 65 ft | 0 kts | 240° |
| 2026-05-04 10:56 | 62.55973 | 6.11476 | 64 ft | 2 kts | 208° |
| 2026-05-04 10:56 | 62.55969 | 6.11499 | 65 ft | 5 kts | 49° |
| 2026-05-04 10:57 | 62.55998 | 6.11570 | 68 ft | 9 kts | 31° |
| 2026-05-04 10:57 | 62.56059 | 6.11631 | 61 ft | 12 kts | 57° |
| 2026-05-04 10:57 | 62.56103 | 6.11826 | 68 ft | 17 kts | 65° |
| 2026-05-04 10:57 | 62.56146 | 6.12025 | 64 ft | 12 kts | 65° |
| 2026-05-04 10:58 | 62.56155 | 6.12055 | 68 ft | 0 kts | 53° |
| 2026-05-04 11:02 | 62.56211 | 6.12116 | 67 ft | 14 kts | 18° |
| 2026-05-04 11:05 | 62.53608 | 6.09786 | 2834 ft | 169 kts | 108° |
| 2026-05-04 11:06 | 62.53771 | 6.12329 | 3068 ft | 177 kts | 58° |
| 2026-05-04 11:06 | 62.54688 | 6.13913 | 3295 ft | 167 kts | 9° |
| 2026-05-04 11:06 | 62.55803 | 6.14084 | 3553 ft | 160 kts | 356° |
| 2026-05-04 11:06 | 62.56837 | 6.15126 | 3829 ft | 176 kts | 41° |
| 2026-05-04 11:08 | 62.59381 | 6.33639 | 5001 ft | 199 kts | 71° |
| 2026-05-04 11:10 | 62.62449 | 6.53933 | 4991 ft | 201 kts | 71° |
| 2026-05-04 11:12 | 62.65480 | 6.74220 | 4987 ft | 202 kts | 71° |
| 2026-05-04 11:12 | 62.65911 | 6.77123 | 4986 ft | 201 kts | 71° |
| 2026-05-04 11:12 | 62.66341 | 6.80020 | 5003 ft | 202 kts | 71° |
| 2026-05-04 11:12 | 62.66776 | 6.82959 | 4983 ft | 204 kts | 71° |
| 2026-05-04 11:13 | 62.67211 | 6.85905 | 4984 ft | 204 kts | 71° |
| 2026-05-04 11:13 | 62.67519 | 6.88917 | 4980 ft | 204 kts | 89° |
| 2026-05-04 11:13 | 62.67322 | 6.91938 | 4985 ft | 200 kts | 112° |
| 2026-05-04 11:13 | 62.66665 | 6.94534 | 4986 ft | 193 kts | 137° |
| 2026-05-04 11:14 | 62.66366 | 6.95277 | 4983 ft | 193 kts | 140° |
| 2026-05-04 11:14 | 62.64590 | 6.99611 | 4968 ft | 189 kts | 138° |
| 2026-05-04 11:16 | 62.58366 | 7.17152 | 4967 ft | 208 kts | 99° |
| 2026-05-04 11:16 | 62.58331 | 7.20255 | 4960 ft | 201 kts | 105° |
| 2026-05-04 11:16 | 62.57689 | 7.22716 | 4999 ft | 180 kts | 147° |
| 2026-05-04 11:17 | 62.56589 | 7.23603 | 4998 ft | 165 kts | 189° |
| 2026-05-04 11:17 | 62.55619 | 7.22688 | 4999 ft | 148 kts | 232° |
| 2026-05-04 11:19 | 62.57482 | 7.25285 | 4995 ft | 160 kts | 168° |
| 2026-05-04 11:19 | 62.56482 | 7.25194 | 4999 ft | 138 kts | 217° |
| 2026-05-04 11:19 | 62.55926 | 7.23624 | 4991 ft | 135 kts | 251° |
| 2026-05-04 11:19 | 62.55609 | 7.21752 | 4981 ft | 133 kts | 255° |
| 2026-05-04 11:20 | 62.55476 | 7.19692 | 4997 ft | 144 kts | 274° |
| 2026-05-04 11:20 | 62.55989 | 7.17792 | 5001 ft | 157 kts | 316° |
| 2026-05-04 11:20 | 62.57090 | 7.17214 | 4998 ft | 176 kts | 0° |
| 2026-05-04 11:20 | 62.58200 | 7.18474 | 4982 ft | 190 kts | 43° |
| 2026-05-04 11:22 | 62.64674 | 7.32010 | 4322 ft | 190 kts | 30° |
| 2026-05-04 11:22 | 62.65735 | 7.33687 | 4038 ft | 187 kts | 28° |
| 2026-05-04 11:23 | 62.66746 | 7.35278 | 3977 ft | 170 kts | 27° |
| 2026-05-04 11:23 | 62.67678 | 7.36754 | 3964 ft | 161 kts | 28° |
| 2026-05-04 11:24 | 62.73065 | 7.44700 | 3963 ft | 140 kts | 356° |
| 2026-05-04 11:25 | 62.73973 | 7.44666 | 3886 ft | 126 kts | 335° |
| 2026-05-04 11:25 | 62.74792 | 7.43973 | 3562 ft | 128 kts | 319° |
| 2026-05-04 11:25 | 62.75460 | 7.42720 | 3233 ft | 126 kts | 303° |
| 2026-05-04 11:26 | 62.76037 | 7.39717 | 2471 ft | 95 kts | 273° |
| 2026-05-04 11:27 | 62.76572 | 7.39597 | 1339 ft | 63 kts | 247° |
| 2026-05-04 11:28 | 62.76405 | 7.38707 | 1162 ft | 64 kts | 258° |
| 2026-05-04 11:28 | 62.76266 | 7.37779 | 1071 ft | 63 kts | 255° |
| 2026-05-04 11:28 | 62.76136 | 7.36916 | 979 ft | 60 kts | 255° |
| 2026-05-04 11:28 | 62.75985 | 7.36065 | 857 ft | 61 kts | 256° |
| 2026-05-04 11:29 | 62.75869 | 7.35185 | 731 ft | 63 kts | 253° |
| 2026-05-04 11:29 | 62.75712 | 7.34196 | 675 ft | 71 kts | 253° |
| 2026-05-04 11:29 | 62.75564 | 7.33188 | 601 ft | 66 kts | 253° |
| 2026-05-04 11:29 | 62.75409 | 7.32173 | 409 ft | 73 kts | 252° |
| 2026-05-04 11:31 | 62.74530 | 7.26559 | 15 ft | 25 kts | 252° |
| 2026-05-04 11:33 | 62.74609 | 7.26143 | 16 ft | 0 kts | 343° |